Terminal Aerodrome Forecast
Issued by NWS

Home | Current Version | Previous Version | Text Only | Print | Product List | Glossary On
Versions: 1 2 3 4 5 6 7 8 9 10 11 12 13
000
FTUS45 KRIW 251120
TAFBPI
TAF
KBPI 251120Z 2512/2612 VRB04KT P6SM VCSH SCT030 BKN050
     FM251500 VRB05KT 5SM -SN SCT015 BKN025
     FM252000 34009KT P6SM VCSH SCT025 BKN040
     FM260200 35009KT P6SM SCT080=

USA.gov is the U.S. government's official web portal to all federal, state and local government web resources and services.